createdAt,value
2019-03-06T00:02:14.071Z,99809.62
2019-03-06T00:04:47.362Z,99809.16
2019-03-06T00:07:22.757Z,99803.20
2019-03-06T00:09:55.291Z,99806.33
2019-03-06T00:12:30.059Z,99811.27
2019-03-06T00:15:04.683Z,99806.66
2019-03-06T00:17:38.030Z,99802.53
2019-03-06T00:20:11.747Z,99809.38
2019-03-06T00:22:46.626Z,99810.60
2019-03-06T00:25:20.010Z,99805.79
2019-03-06T00:27:55.015Z,99815.58
2019-03-06T00:30:28.227Z,99813.99
2019-03-06T00:33:01.575Z,99821.05
2019-03-06T00:35:34.850Z,99823.09
2019-03-06T00:38:08.459Z,99817.45
2019-03-06T00:40:42.162Z,99821.17
2019-03-06T00:43:15.723Z,99821.84
2019-03-06T00:45:48.941Z,99828.16
2019-03-06T00:48:22.239Z,99846.83
2019-03-06T00:50:55.760Z,99842.06
2019-03-06T00:53:29.047Z,99844.38
2019-03-06T00:56:02.301Z,99848.56
2019-03-06T00:58:35.718Z,99849.04
2019-03-06T01:01:09.670Z,99843.72
2019-03-06T01:03:43.199Z,99844.77
2019-03-06T01:06:16.555Z,99844.88
2019-03-06T01:08:50.047Z,99842.98
2019-03-06T01:11:23.501Z,99843.73
2019-03-06T01:13:58.513Z,99846.70
2019-03-06T01:16:31.819Z,99851.03
2019-03-06T01:19:05.174Z,99845.11
2019-03-06T01:21:38.435Z,99844.09
2019-03-06T01:24:11.670Z,99848.95
2019-03-06T01:26:45.088Z,99849.92
2019-03-06T01:29:18.371Z,99853.55
2019-03-06T01:31:51.777Z,99859.84
2019-03-06T01:34:25.022Z,99853.64
2019-03-06T01:36:58.432Z,99853.58
2019-03-06T01:39:33.136Z,99854.10
2019-03-06T01:42:06.533Z,99857.84
2019-03-06T01:44:41.778Z,99850.16
2019-03-06T01:47:17.769Z,99846.03
2019-03-06T01:49:51.975Z,99858.27
2019-03-06T01:52:25.280Z,99857.33
2019-03-06T01:54:58.524Z,99858.53
2019-03-06T01:57:31.758Z,99862.71
2019-03-06T02:00:05.378Z,99857.56
2019-03-06T02:02:38.577Z,99857.56
2019-03-06T02:05:13.791Z,99862.46
2019-03-06T02:07:47.345Z,99861.66
2019-03-06T02:10:20.708Z,99869.58
2019-03-06T02:12:56.000Z,99867.83
2019-03-06T02:15:29.546Z,99865.58
2019-03-06T02:18:02.971Z,99870.44
2019-03-06T02:20:36.291Z,99870.19
2019-03-06T02:23:10.694Z,99868.73
2019-03-06T02:25:43.990Z,99866.02
2019-03-06T02:28:19.190Z,99866.09
2019-03-06T02:30:52.750Z,99861.41
2019-03-06T02:33:26.646Z,99867.45
2019-03-06T02:35:59.875Z,99864.20
2019-03-06T02:38:33.029Z,99874.49
2019-03-06T02:41:06.715Z,99882.20
2019-03-06T02:43:41.853Z,99885.02
2019-03-06T02:46:15.344Z,99876.44
2019-03-06T02:48:48.594Z,99886.48
2019-03-06T02:51:21.899Z,99881.34
2019-03-06T02:53:55.439Z,99887.05
2019-03-06T02:56:30.147Z,99876.05
2019-03-06T02:59:03.571Z,99874.16
2019-03-06T03:01:36.879Z,99874.83
2019-03-06T03:04:11.307Z,99870.58
2019-03-06T03:06:44.711Z,99864.65
2019-03-06T03:15:25.126Z,99869.23
2019-03-06T03:17:58.529Z,99857.78
2019-03-06T03:20:32.054Z,99865.30
2019-03-06T03:23:06.662Z,99860.15
2019-03-06T03:25:40.001Z,99860.23
2019-03-06T03:28:13.202Z,99851.52
2019-03-06T03:30:46.644Z,99842.80
2019-03-06T03:33:20.133Z,99844.29
2019-03-06T03:35:53.486Z,99843.70
2019-03-06T03:38:26.744Z,99837.48
2019-03-06T03:41:00.191Z,99825.48
2019-03-06T03:43:33.489Z,99825.02
2019-03-06T03:46:06.923Z,99817.00
2019-03-06T03:48:40.570Z,99823.42
2019-03-06T03:51:13.955Z,99811.48
2019-03-06T03:53:47.438Z,99807.91
2019-03-06T03:56:20.863Z,99808.98
2019-03-06T03:58:54.447Z,99824.20
2019-03-06T04:01:27.879Z,99822.80
2019-03-06T04:04:01.193Z,99817.30
2019-03-06T04:06:34.595Z,99810.93
2019-03-06T04:09:08.688Z,99807.34
2019-03-06T04:11:43.039Z,99806.59
2019-03-06T04:14:16.697Z,99808.73
2019-03-06T04:16:50.054Z,99798.91
2019-03-06T04:19:23.325Z,99798.34
2019-03-06T04:21:56.617Z,99791.41
2019-03-06T04:24:30.190Z,99779.93
2019-03-06T04:27:03.515Z,99783.57
2019-03-06T04:29:36.801Z,99774.59
2019-03-06T04:32:12.968Z,99775.76
2019-03-06T04:34:45.991Z,99770.34
2019-03-06T04:37:19.288Z,99774.52
2019-03-06T04:39:52.812Z,99775.06
2019-03-06T04:42:25.979Z,99773.36
2019-03-06T04:44:59.358Z,99768.88
2019-03-06T04:47:35.684Z,99767.38
2019-03-06T04:50:11.247Z,99764.84
2019-03-06T04:52:44.925Z,99769.55
2019-03-06T04:55:19.622Z,99763.95
2019-03-06T04:57:53.663Z,99769.55
2019-03-06T05:00:28.776Z,99767.34
2019-03-06T05:03:14.611Z,99772.07
2019-03-06T05:05:47.608Z,99748.84
2019-03-06T05:08:21.444Z,99752.05
2019-03-06T05:10:55.287Z,99749.03
2019-03-06T05:13:32.137Z,99747.45
2019-03-06T05:16:05.546Z,99736.05
2019-03-06T05:18:40.485Z,99731.20
2019-03-06T05:21:15.006Z,99722.23
2019-03-06T05:23:48.332Z,99729.22
2019-03-06T05:26:23.046Z,99722.25
2019-03-06T05:28:56.571Z,99722.12
2019-03-06T05:31:29.916Z,99714.48
2019-03-06T05:34:03.614Z,99723.45
2019-03-06T05:36:48.437Z,99725.20
2019-03-06T05:39:21.655Z,99726.84
2019-03-06T05:41:56.047Z,99730.68
2019-03-06T05:44:29.391Z,99721.55
2019-03-06T05:47:04.257Z,99731.97
2019-03-06T05:49:37.621Z,99726.78
2019-03-06T05:52:11.361Z,99730.55
2019-03-06T05:54:44.642Z,99725.06
2019-03-06T05:57:23.771Z,99731.34
2019-03-06T05:59:58.070Z,99723.47
2019-03-06T06:02:35.168Z,99718.37
2019-03-06T06:05:11.245Z,99715.67
2019-03-06T06:07:48.181Z,99716.89
2019-03-06T06:10:38.530Z,99703.36
2019-03-06T06:13:13.146Z,99706.26
2019-03-06T06:16:03.653Z,99709.61
2019-03-06T06:18:39.686Z,99705.89
2019-03-06T06:21:12.993Z,99708.18
2019-03-06T06:23:49.338Z,99700.38
2019-03-06T06:26:25.747Z,99700.72
2019-03-06T06:28:57.218Z,99696.97
2019-03-06T06:31:30.559Z,99697.03
2019-03-06T06:34:03.894Z,99695.91
2019-03-06T06:36:39.012Z,99700.55
2019-03-06T06:39:12.264Z,99700.03
2019-03-06T06:41:48.657Z,99703.43
2019-03-06T06:44:22.021Z,99702.63
2019-03-06T06:46:55.238Z,99707.27
2019-03-06T06:49:29.421Z,99698.34
2019-03-06T06:52:11.258Z,99693.31
2019-03-06T06:55:14.895Z,99687.77
2019-03-06T06:58:16.186Z,99692.03
2019-03-06T07:01:09.857Z,99690.39
2019-03-06T07:04:03.162Z,99685.67
2019-03-06T07:06:36.528Z,99695.38
2019-03-06T07:09:10.482Z,99693.80
2019-03-06T07:11:44.822Z,99685.80
2019-03-06T07:14:18.029Z,99687.44
2019-03-06T07:16:53.159Z,99680.73
2019-03-06T07:19:25.867Z,99679.09
2019-03-06T07:21:59.306Z,99683.74
2019-03-06T07:24:33.050Z,99675.73
2019-03-06T07:27:06.959Z,99686.50
2019-03-06T07:29:40.165Z,99680.92
2019-03-06T07:32:13.615Z,99682.79
2019-03-06T07:35:22.186Z,99679.89
2019-03-06T07:37:55.541Z,99684.66
2019-03-06T07:40:30.181Z,99678.91
2019-03-06T07:43:03.758Z,99678.84
2019-03-06T07:45:37.454Z,99678.84
2019-03-06T07:48:11.014Z,99681.58
2019-03-06T07:50:45.215Z,99682.02
2019-03-06T07:53:51.597Z,99687.26
2019-03-06T07:56:25.353Z,99686.20
2019-03-06T07:59:00.497Z,99682.72
2019-03-06T08:01:41.482Z,99690.48
2019-03-06T08:04:16.488Z,99682.07
2019-03-06T08:06:49.925Z,99683.02
2019-03-06T08:09:24.553Z,99683.95
2019-03-06T08:11:58.029Z,99678.20
2019-03-06T08:14:31.574Z,99684.67
2019-03-06T08:17:06.484Z,99688.69
2019-03-06T08:19:40.327Z,99685.68
2019-03-06T08:22:14.615Z,99679.67
2019-03-06T08:24:48.048Z,99685.75
2019-03-06T08:27:21.381Z,99686.02
2019-03-06T08:29:55.059Z,99684.44
2019-03-06T08:32:30.050Z,99687.11
2019-03-06T08:35:04.615Z,99688.52
2019-03-06T08:37:38.457Z,99686.83
2019-03-06T08:40:13.285Z,99690.44
2019-03-06T08:42:48.922Z,99684.29
2019-03-06T08:45:25.577Z,99691.62
2019-03-06T08:47:57.101Z,99690.91
2019-03-06T08:50:30.638Z,99698.57
2019-03-06T08:53:04.318Z,99696.70
2019-03-06T08:55:37.845Z,99688.52
2019-03-06T08:58:11.376Z,99697.32
2019-03-06T09:00:45.015Z,99699.02
2019-03-06T09:03:18.700Z,99699.02
2019-03-06T09:05:57.730Z,99702.77
2019-03-06T09:08:32.143Z,99706.13
2019-03-06T09:11:07.397Z,99703.20
2019-03-06T09:13:42.692Z,99705.38
2019-03-06T09:16:16.238Z,99709.38
2019-03-06T09:18:49.700Z,99710.78
2019-03-06T09:21:23.824Z,99706.66
2019-03-06T09:23:59.555Z,99712.52
2019-03-06T09:26:33.715Z,99704.78
2019-03-06T09:29:11.273Z,99705.17
2019-03-06T09:31:45.777Z,99707.50
2019-03-06T09:34:20.657Z,99710.50
2019-03-06T09:36:54.262Z,99711.84
2019-03-06T09:39:27.493Z,99714.08
2019-03-06T09:42:01.163Z,99722.09
2019-03-06T09:44:34.587Z,99718.65
2019-03-06T09:47:08.804Z,99720.87
2019-03-06T09:49:42.347Z,99724.70
2019-03-06T09:52:18.755Z,99721.72
2019-03-06T09:54:54.964Z,99727.02
2019-03-06T09:57:29.494Z,99729.91
2019-03-06T10:00:03.016Z,99731.66
2019-03-06T10:02:36.531Z,99738.70
2019-03-06T10:05:11.214Z,99739.63
2019-03-06T10:07:45.763Z,99745.23
2019-03-06T10:10:19.664Z,99741.52
2019-03-06T10:12:53.422Z,99743.50
2019-03-06T10:15:31.799Z,99746.30
2019-03-06T10:18:05.156Z,99750.18
2019-03-06T10:20:38.732Z,99749.09
2019-03-06T10:23:15.039Z,99752.78
2019-03-06T10:25:50.633Z,99758.66
2019-03-06T10:28:27.955Z,99766.27
2019-03-06T10:31:02.889Z,99766.81
2019-03-06T10:33:36.592Z,99763.09
2019-03-06T10:36:10.416Z,99765.17
2019-03-06T10:38:44.569Z,99761.27
2019-03-06T10:41:19.896Z,99770.02
2019-03-06T10:43:54.653Z,99766.91
2019-03-06T10:46:28.200Z,99764.84
2019-03-06T10:49:04.110Z,99768.94
2019-03-06T10:51:37.649Z,99773.86
2019-03-06T10:54:11.190Z,99771.30
2019-03-06T10:56:44.917Z,99773.95
2019-03-06T10:59:19.262Z,99769.75
2019-03-06T11:01:53.324Z,99776.83
2019-03-06T11:04:28.337Z,99777.89
2019-03-06T11:07:03.462Z,99784.05
2019-03-06T11:09:40.425Z,99779.38
2019-03-06T11:12:17.548Z,99779.11
2019-03-06T11:14:57.250Z,99777.97
2019-03-06T11:17:32.632Z,99780.35
2019-03-06T11:20:13.373Z,99783.28
2019-03-06T11:22:48.995Z,99785.19
2019-03-06T11:25:28.812Z,99784.25
2019-03-06T11:28:04.296Z,99786.18
2019-03-06T11:30:46.401Z,99784.22
2019-03-06T11:33:22.441Z,99791.16
2019-03-06T11:36:01.089Z,99787.24
2019-03-06T11:38:36.372Z,99794.05
2019-03-06T11:41:12.465Z,99797.08
2019-03-06T11:43:52.773Z,99796.41
2019-03-06T11:46:28.139Z,99793.50
2019-03-06T11:49:03.445Z,99798.58
2019-03-06T11:51:39.456Z,99789.62
2019-03-06T11:54:19.754Z,99793.97
2019-03-06T11:56:55.018Z,99792.28
2019-03-06T11:59:31.694Z,99795.49
2019-03-06T12:02:12.421Z,99790.85
2019-03-06T12:04:47.654Z,99794.58
2019-03-06T12:07:23.772Z,99796.55
2019-03-06T12:10:04.253Z,99798.52
2019-03-06T12:12:39.841Z,99796.77
2019-03-06T12:15:16.849Z,99793.70
2019-03-06T12:17:51.893Z,99796.58
2019-03-06T12:20:29.332Z,99789.01
2019-03-06T12:23:04.896Z,99793.47
2019-03-06T12:25:42.618Z,99789.86
2019-03-06T12:28:20.170Z,99795.20
2019-03-06T12:30:55.325Z,99800.28
2019-03-06T12:33:32.561Z,99795.42
2019-03-06T12:36:07.707Z,99792.72
2019-03-06T12:38:42.449Z,99789.51
2019-03-06T12:41:17.458Z,99789.34
2019-03-06T12:43:52.779Z,99790.54
2019-03-06T12:46:27.923Z,99783.62
2019-03-06T12:49:04.224Z,99785.48
2019-03-06T12:51:40.035Z,99784.09
2019-03-06T12:54:14.532Z,99786.52
2019-03-06T12:56:48.417Z,99785.45
2019-03-06T12:59:22.904Z,99780.50
2019-03-06T13:02:13.249Z,99784.63
2019-03-06T13:04:53.469Z,99774.63
2019-03-06T13:07:36.306Z,99785.26
2019-03-06T13:10:17.332Z,99781.22
2019-03-06T13:12:51.971Z,99780.25
2019-03-06T13:15:31.423Z,99783.26
2019-03-06T13:18:05.496Z,99784.02
2019-03-06T13:20:39.147Z,99788.84
2019-03-06T13:23:14.152Z,99783.43
2019-03-06T13:25:49.913Z,99778.36
2019-03-06T13:28:26.215Z,99786.54
2019-03-06T13:30:59.872Z,99789.92
2019-03-06T13:33:34.686Z,99787.06
2019-03-06T13:36:09.838Z,99782.76
2019-03-06T13:38:44.880Z,99789.69
2019-03-06T13:41:22.386Z,99784.61
2019-03-06T13:43:57.148Z,99796.18
2019-03-06T13:46:37.717Z,99793.98
2019-03-06T13:49:12.346Z,99791.15
2019-03-06T13:51:47.118Z,99784.03
2019-03-06T13:54:23.738Z,99779.75
2019-03-06T13:56:59.175Z,99775.83
2019-03-06T13:59:41.087Z,99779.11
2019-03-06T14:02:16.991Z,99779.21
2019-03-06T14:04:52.232Z,99782.31
2019-03-06T14:07:30.039Z,99782.72
2019-03-06T14:16:04.120Z,99780.08
2019-03-06T14:18:39.833Z,99778.00
2019-03-06T14:21:14.076Z,99776.18
2019-03-06T14:23:48.066Z,99775.28
2019-03-06T14:26:22.531Z,99776.56
2019-03-06T14:28:56.839Z,99769.82
2019-03-06T14:31:37.253Z,99768.51
2019-03-06T14:34:10.343Z,99768.83
2019-03-06T14:36:46.482Z,99762.73
2019-03-06T14:39:31.344Z,99769.30
2019-03-06T14:42:05.604Z,99765.41
2019-03-06T14:44:40.060Z,99764.45
2019-03-06T14:47:16.634Z,99765.59
2019-03-06T14:49:50.898Z,99760.47
2019-03-06T14:52:29.523Z,99762.41
2019-03-06T14:55:04.445Z,99771.20
2019-03-06T14:57:38.789Z,99774.91
2019-03-06T15:00:17.120Z,99764.54
2019-03-06T15:02:50.911Z,99766.39
2019-03-06T15:05:24.291Z,99768.33
2019-03-06T15:07:58.287Z,99764.55
2019-03-06T15:10:32.342Z,99767.03
2019-03-06T15:13:06.994Z,99772.09
2019-03-06T15:15:42.452Z,99768.02
2019-03-06T15:18:16.464Z,99763.50
2019-03-06T15:20:50.686Z,99765.25
2019-03-06T15:23:26.305Z,99767.38
2019-03-06T15:26:00.009Z,99760.16
2019-03-06T15:28:33.954Z,99761.37
2019-03-06T15:31:09.404Z,99758.77
2019-03-06T15:33:42.132Z,99761.05
2019-03-06T15:36:15.473Z,99758.73
2019-03-06T15:38:49.916Z,99755.64
2019-03-06T15:41:23.481Z,99753.88
2019-03-06T15:43:56.860Z,99751.16
2019-03-06T15:46:30.354Z,99754.61
2019-03-06T15:49:03.633Z,99750.67
2019-03-06T15:51:37.896Z,99751.47
2019-03-06T15:54:12.345Z,99744.08
2019-03-06T15:56:46.172Z,99735.94
2019-03-06T15:59:19.798Z,99736.84
2019-03-06T16:01:53.526Z,99735.89
2019-03-06T16:04:27.337Z,99734.92
2019-03-06T16:07:01.944Z,99735.22
2019-03-06T16:09:37.455Z,99742.52
2019-03-06T16:12:12.339Z,99741.36
2019-03-06T16:14:47.071Z,99739.65
2019-03-06T16:17:21.315Z,99731.03
2019-03-06T16:19:54.831Z,99734.30
2019-03-06T16:22:29.295Z,99728.03
2019-03-06T16:25:03.053Z,99732.88
2019-03-06T16:27:37.777Z,99733.87
2019-03-06T16:30:24.740Z,99738.76
2019-03-06T16:32:58.283Z,99737.17
2019-03-06T16:35:31.855Z,99741.11
2019-03-06T16:38:06.625Z,99734.73
2019-03-06T16:40:41.279Z,99739.39
2019-03-06T16:43:16.471Z,99741.11
2019-03-06T16:45:51.282Z,99741.86
2019-03-06T16:48:26.015Z,99749.78
2019-03-06T16:51:00.614Z,99750.11
2019-03-06T16:53:35.302Z,99753.30
2019-03-06T16:56:10.203Z,99756.97
2019-03-06T16:58:45.841Z,99758.49
2019-03-06T17:01:20.043Z,99756.64
2019-03-06T17:03:55.828Z,99754.98
2019-03-06T17:06:30.030Z,99756.78
2019-03-06T17:09:05.295Z,99761.78
2019-03-06T17:11:41.637Z,99754.31
2019-03-06T17:14:16.226Z,99754.52
2019-03-06T17:16:50.180Z,99752.66
2019-03-06T17:19:24.481Z,99755.34
2019-03-06T17:21:58.859Z,99753.05
2019-03-06T17:24:34.826Z,99757.76
2019-03-06T17:27:09.259Z,99758.20
2019-03-06T17:29:47.650Z,99754.56
2019-03-06T17:32:22.615Z,99757.88
2019-03-06T17:34:58.047Z,99750.98
2019-03-06T17:37:32.233Z,99751.50
2019-03-06T17:40:07.658Z,99754.11
2019-03-06T17:42:42.512Z,99745.84
2019-03-06T17:45:17.844Z,99749.61
2019-03-06T17:47:52.596Z,99745.64
2019-03-06T17:50:31.449Z,99736.34
2019-03-06T17:53:05.898Z,99740.16
2019-03-06T17:55:39.943Z,99735.13
2019-03-06T17:58:13.887Z,99741.61
2019-03-06T18:00:47.561Z,99739.50
2019-03-06T18:03:21.067Z,99739.50
2019-03-06T18:05:59.243Z,99738.45
2019-03-06T18:08:32.986Z,99733.18
2019-03-06T18:11:06.564Z,99733.87
2019-03-06T18:13:40.892Z,99739.64
2019-03-06T18:16:14.440Z,99739.64
2019-03-06T18:18:47.730Z,99739.88
2019-03-06T18:21:21.920Z,99736.08
2019-03-06T18:23:55.429Z,99734.41
2019-03-06T18:26:28.606Z,99733.18
2019-03-06T18:29:02.109Z,99739.08
2019-03-06T18:31:37.024Z,99734.09
2019-03-06T18:34:13.024Z,99729.27
2019-03-06T18:36:46.904Z,99726.97
2019-03-06T18:39:22.634Z,99731.76
2019-03-06T18:41:57.354Z,99729.39
2019-03-06T18:44:33.282Z,99732.44
2019-03-06T18:47:10.246Z,99730.28
2019-03-06T18:49:42.926Z,99732.39
2019-03-06T18:52:19.642Z,99734.17
2019-03-06T18:54:56.471Z,99727.23
2019-03-06T18:57:30.310Z,99730.99
2019-03-06T19:00:06.145Z,99725.31
2019-03-06T19:02:40.872Z,99720.88
2019-03-06T19:05:15.088Z,99722.38
2019-03-06T19:07:48.603Z,99720.66
2019-03-06T19:10:23.741Z,99711.69
2019-03-06T19:12:59.942Z,99710.53
2019-03-06T19:15:34.824Z,99708.37
2019-03-06T19:18:08.498Z,99708.77
2019-03-06T19:20:41.835Z,99701.92
2019-03-06T19:23:15.649Z,99707.14
2019-03-06T19:25:49.059Z,99700.53
2019-03-06T19:28:22.376Z,99701.81
2019-03-06T19:30:56.068Z,99702.00
2019-03-06T19:33:29.299Z,99703.91
2019-03-06T19:36:02.820Z,99702.58
2019-03-06T19:38:36.038Z,99704.11
2019-03-06T19:41:09.560Z,99696.56
2019-03-06T19:43:42.954Z,99697.19
2019-03-06T19:46:16.585Z,99696.56
2019-03-06T19:48:49.798Z,99706.33
2019-03-06T19:51:23.142Z,99702.69
2019-03-06T19:53:57.532Z,99699.56
2019-03-06T19:56:30.902Z,99705.13
2019-03-06T19:59:04.261Z,99706.50
2019-03-06T20:01:38.034Z,99708.55
2019-03-06T20:04:11.880Z,99710.92
2019-03-06T20:06:45.740Z,99718.48
2019-03-06T20:09:29.245Z,99713.53
2019-03-06T20:12:03.154Z,99716.78
2019-03-06T20:14:38.717Z,99720.16
2019-03-06T20:17:12.628Z,99714.22
2019-03-06T20:19:49.227Z,99712.13
2019-03-06T20:22:23.988Z,99714.61
2019-03-06T20:24:57.710Z,99717.27
2019-03-06T20:27:31.553Z,99712.69
2019-03-06T20:30:06.177Z,99713.53
2019-03-06T20:32:39.821Z,99707.66
2019-03-06T20:35:13.978Z,99710.47
2019-03-06T20:37:47.979Z,99714.42
2019-03-06T20:40:22.743Z,99709.70
2019-03-06T20:42:56.954Z,99709.50
2019-03-06T20:45:34.423Z,99711.81
2019-03-06T20:48:06.796Z,99708.23
2019-03-06T20:50:41.083Z,99706.00
2019-03-06T20:53:17.390Z,99714.47
2019-03-06T20:55:50.158Z,99711.61
2019-03-06T20:58:25.460Z,99706.41
2019-03-06T21:04:02.782Z,99695.86
2019-03-06T21:06:36.535Z,99695.30
2019-03-06T21:09:11.890Z,99707.60
2019-03-06T21:11:45.640Z,99700.27
2019-03-06T21:14:19.358Z,99704.46
2019-03-06T21:16:54.882Z,99705.68
2019-03-06T21:19:28.442Z,99706.45
2019-03-06T21:22:23.203Z,99703.20
2019-03-06T21:24:36.760Z,99703.13
2019-03-06T21:27:11.474Z,99701.09
2019-03-06T21:29:46.111Z,99705.64
2019-03-06T21:32:19.805Z,99708.82
2019-03-06T21:34:53.783Z,99705.80
2019-03-06T21:37:27.600Z,99704.99
2019-03-06T21:40:04.333Z,99707.99
2019-03-06T21:42:38.032Z,99705.94
2019-03-06T21:45:13.960Z,99704.46
2019-03-06T21:47:48.942Z,99697.33
2019-03-06T21:50:23.173Z,99701.42
2019-03-06T21:52:56.848Z,99699.80
2019-03-06T21:55:30.581Z,99693.51
2019-03-06T21:58:04.427Z,99701.56
2019-03-06T22:00:54.969Z,99698.28
2019-03-06T22:03:27.661Z,99706.66
2019-03-06T22:06:02.872Z,99706.43
2019-03-06T22:08:36.535Z,99700.23
2019-03-06T22:11:10.247Z,99705.98
2019-03-06T22:13:43.964Z,99705.94
2019-03-06T22:16:46.316Z,99701.46
2019-03-06T22:18:58.207Z,99704.46
2019-03-06T22:21:33.359Z,99700.80
2019-03-06T22:24:08.096Z,99689.96
2019-03-06T22:26:41.844Z,99704.02
2019-03-06T22:29:15.465Z,99706.52
2019-03-06T22:31:50.024Z,99714.40
2019-03-06T22:34:23.740Z,99715.59
2019-03-06T22:37:00.065Z,99710.02
2019-03-06T22:39:33.893Z,99710.14
2019-03-06T22:42:07.662Z,99717.55
2019-03-06T22:44:41.317Z,99714.74
2019-03-06T22:47:15.390Z,99718.50
2019-03-06T22:49:49.477Z,99713.96
2019-03-06T22:52:32.243Z,99718.23
2019-03-06T22:55:12.359Z,99720.59
2019-03-06T22:57:43.726Z,99716.09
2019-03-06T23:00:36.447Z,99722.73
2019-03-06T23:03:10.766Z,99728.92
2019-03-06T23:05:44.531Z,99730.53
2019-03-06T23:08:18.385Z,99724.69
2019-03-06T23:10:52.784Z,99725.89
2019-03-06T23:13:27.467Z,99736.75
2019-03-06T23:16:03.449Z,99726.93
2019-03-06T23:18:37.327Z,99725.70
2019-03-06T23:21:11.040Z,99729.59
2019-03-06T23:23:45.165Z,99727.20
2019-03-06T23:26:18.903Z,99734.98
2019-03-06T23:28:52.730Z,99734.05
2019-03-06T23:31:27.088Z,99734.83
2019-03-06T23:34:01.438Z,99742.56
2019-03-06T23:36:37.416Z,99741.03
2019-03-06T23:39:13.670Z,99740.71
2019-03-06T23:41:47.579Z,99745.58
2019-03-06T23:44:21.616Z,99748.44
2019-03-06T23:46:57.681Z,99746.29
2019-03-06T23:49:31.659Z,99744.68
2019-03-06T23:52:05.498Z,99755.04
2019-03-06T23:54:51.830Z,99757.33
2019-03-06T23:57:25.700Z,99756.91
2019-03-06T23:59:59.551Z,99758.63
